Time;durP1;ratioP1;P1;durP2;ratioP2;P2;SDS_P1;SDS_P2;PMS_P1;PMS_P2;Temp;Humidity;BMP_temperature;BMP_pressure;BME280_temperature;BME280_humidity;BME280_pressure;Samples;Min_cycle;Max_cycle;Signal;HPM_P1;HPM_P2
2023/01/13 00:01:28;;;;;;;;;;;19.40;47.50;;;;;;5061706;28;20308;-63
2023/01/13 00:03:55;;;;;;;;;;;19.40;47.50;;;;;;5053019;28;19921;-64
2023/01/13 00:06:24;;;;;;;;;;;19.40;47.50;;;;;;5051737;28;19924;-64
2023/01/13 00:08:51;;;;;;;;;;;19.40;47.50;;;;;;5062259;28;19924;-64
2023/01/13 00:11:18;;;;;;;;;;;19.40;47.50;;;;;;5072014;28;19964;-64
2023/01/13 00:13:44;;;;;;;;;;;19.40;47.50;;;;;;5066348;28;20061;-64
2023/01/13 00:16:14;;;;;;;;;;;19.40;47.50;;;;;;5071659;28;19977;-64
2023/01/13 00:18:41;;;;;;;;;;;19.40;47.50;;;;;;5054034;28;19971;-64
2023/01/13 00:21:08;;;;;;;;;;;19.40;47.50;;;;;;5054024;28;19977;-63
2023/01/13 00:23:34;;;;;;;;;;;19.40;47.50;;;;;;5057055;28;20034;-68
2023/01/13 00:26:02;;;;;;;;;;;19.40;47.50;;;;;;5065101;28;19933;-68
2023/01/13 00:28:29;;;;;;;;;;;19.40;47.50;;;;;;5056729;28;19925;-67
2023/01/13 00:30:57;;;;;;;;;;;19.40;47.50;;;;;;5049716;28;19948;-67
2023/01/13 00:33:25;;;;;;;;;;;19.40;47.40;;;;;;5066519;28;19928;-67
2023/01/13 00:35:56;;;;;;;;;;;19.40;47.50;;;;;;5066744;28;19924;-67
2023/01/13 00:38:22;;;;;;;;;;;19.40;47.40;;;;;;5052846;28;19920;-66
2023/01/13 00:40:55;;;;;;;;;;;19.40;47.40;;;;;;5070215;28;19921;-66
2023/01/13 00:43:23;;;;;;;;;;;19.40;47.40;;;;;;5070424;28;19951;-67
2023/01/13 00:45:51;;;;;;;;;;;19.40;47.40;;;;;;5062789;28;19929;-67
2023/01/13 00:48:18;;;;;;;;;;;19.40;47.40;;;;;;5049279;28;20011;-67
2023/01/13 00:50:47;;;;;;;;;;;19.40;47.40;;;;;;5071007;28;19921;-67
2023/01/13 00:53:15;;;;;;;;;;;19.40;47.40;;;;;;5065837;28;19925;-67
2023/01/13 00:55:41;;;;;;;;;;;19.40;47.40;;;;;;5067072;28;19928;-67
2023/01/13 00:58:08;;;;;;;;;;;19.40;47.40;;;;;;5051838;28;19929;-67
2023/01/13 01:00:35;;;;;;;;;;;19.40;47.40;;;;;;5069813;28;19920;-67
2023/01/13 01:03:02;;;;;;;;;;;19.40;47.40;;;;;;5069306;28;19938;-67
2023/01/13 01:05:28;;;;;;;;;;;19.40;47.40;;;;;;5051650;28;20164;-67
2023/01/13 01:07:56;;;;;;;;;;;19.40;47.40;;;;;;5070952;28;19985;-67
2023/01/13 01:10:23;;;;;;;;;;;19.40;47.40;;;;;;5069744;28;19990;-67
2023/01/13 01:12:51;;;;;;;;;;;19.40;47.40;;;;;;5068985;28;19974;-66
2023/01/13 01:15:18;;;;;;;;;;;19.40;47.40;;;;;;5034083;28;20409;-67
2023/01/13 01:17:44;;;;;;;;;;;19.50;47.50;;;;;;5070733;28;19924;-67
2023/01/13 01:20:11;;;;;;;;;;;19.40;47.40;;;;;;5070486;28;19925;-66
2023/01/13 01:22:38;;;;;;;;;;;19.50;47.50;;;;;;5044915;28;19920;-67
2023/01/13 01:25:07;;;;;;;;;;;19.50;47.50;;;;;;5067533;28;19924;-67
2023/01/13 01:27:34;;;;;;;;;;;19.40;47.40;;;;;;5051563;28;20259;-67
2023/01/13 01:30:00;;;;;;;;;;;19.50;47.50;;;;;;5049624;28;20001;-66
2023/01/13 01:32:27;;;;;;;;;;;19.50;47.50;;;;;;5068383;28;19920;-67
2023/01/13 01:34:54;;;;;;;;;;;19.50;47.50;;;;;;5068809;28;19920;-67
2023/01/13 01:37:21;;;;;;;;;;;19.50;47.50;;;;;;5034314;28;19975;-65
2023/01/13 01:39:47;;;;;;;;;;;19.50;47.50;;;;;;5057611;28;19924;-67
2023/01/13 01:45:01;;;;;;;;;;;19.50;47.50;;;;;;5052758;28;19920;-67
2023/01/13 01:47:28;;;;;;;;;;;19.50;47.50;;;;;;5052051;28;19921;-67
2023/01/13 01:49:55;;;;;;;;;;;19.50;47.50;;;;;;5052298;28;19970;-67
2023/01/13 01:52:22;;;;;;;;;;;19.50;47.50;;;;;;5052343;28;19932;-67
2023/01/13 01:54:51;;;;;;;;;;;19.50;47.50;;;;;;5044399;28;19992;-66
2023/01/13 01:57:19;;;;;;;;;;;19.50;47.50;;;;;;5052404;28;19920;-67
2023/01/13 01:59:46;;;;;;;;;;;19.50;47.50;;;;;;5064923;28;20022;-67
2023/01/13 02:02:13;;;;;;;;;;;19.50;47.60;;;;;;5069228;28;19924;-67
2023/01/13 02:04:40;;;;;;;;;;;19.50;47.50;;;;;;5072662;28;19921;-68
2023/01/13 02:07:10;;;;;;;;;;;19.50;47.50;;;;;;5055177;28;19921;-67
2023/01/13 02:09:37;;;;;;;;;;;19.50;47.50;;;;;;5053437;28;19920;-67
2023/01/13 02:14:49;;;;;;;;;;;19.50;47.50;;;;;;5069790;28;19927;-67
2023/01/13 02:17:19;;;;;;;;;;;19.50;47.50;;;;;;5073168;28;19969;-66
2023/01/13 02:19:59;;;;;;;;;;;19.50;47.50;;;;;;5073722;28;19931;-67
2023/01/13 02:22:31;;;;;;;;;;;19.50;47.50;;;;;;5055994;28;19943;-67
2023/01/13 02:25:09;;;;;;;;;;;19.50;47.50;;;;;;5054752;28;20382;-67
2023/01/13 02:27:44;;;;;;;;;;;19.50;47.50;;;;;;5071608;28;19920;-67
2023/01/13 02:33:03;;;;;;;;;;;19.50;47.50;;;;;;5072151;28;19920;-67
2023/01/13 02:35:30;;;;;;;;;;;19.50;47.50;;;;;;5073072;28;19935;-66
2023/01/13 02:37:57;;;;;;;;;;;19.50;47.50;;;;;;5055335;28;19978;-67
2023/01/13 02:40:25;;;;;;;;;;;19.50;47.50;;;;;;5073070;28;19963;-67
2023/01/13 02:45:39;;;;;;;;;;;19.50;47.50;;;;;;5054324;28;19931;-66
2023/01/13 02:48:06;;;;;;;;;;;19.50;47.50;;;;;;5073206;28;19920;-67
2023/01/13 02:50:34;;;;;;;;;;;19.50;47.60;;;;;;5068844;28;19974;-67
2023/01/13 02:53:02;;;;;;;;;;;19.50;47.60;;;;;;5067036;28;19974;-67
2023/01/13 02:55:30;;;;;;;;;;;19.50;47.50;;;;;;5067273;28;19921;-67
2023/01/13 02:57:57;;;;;;;;;;;19.50;47.50;;;;;;5072255;28;19920;-67
2023/01/13 03:00:24;;;;;;;;;;;19.50;47.50;;;;;;5051270;28;20023;-67
2023/01/13 03:02:52;;;;;;;;;;;19.50;47.50;;;;;;5053621;28;19970;-67
2023/01/13 03:05:18;;;;;;;;;;;19.50;48.10;;;;;;5071178;28;19959;-65
2023/01/13 03:08:03;;;;;;;;;;;19.50;47.50;;;;;;5053518;28;19924;-68
2023/01/13 03:10:35;;;;;;;;;;;19.50;47.50;;;;;;5066478;28;19947;-68
2023/01/13 03:13:07;;;;;;;;;;;19.50;47.60;;;;;;5070937;28;20406;-67
2023/01/13 03:15:39;;;;;;;;;;;19.50;47.50;;;;;;5062286;28;19943;-66
2023/01/13 03:18:10;;;;;;;;;;;19.50;47.50;;;;;;5070567;28;19931;-67
2023/01/13 03:20:37;;;;;;;;;;;19.50;47.50;;;;;;5071839;28;19966;-66
2023/01/13 03:23:06;;;;;;;;;;;19.50;47.60;;;;;;5061487;28;19925;-68
2023/01/13 03:25:34;;;;;;;;;;;19.50;47.50;;;;;;5048723;28;19928;-67
2023/01/13 03:28:02;;;;;;;;;;;19.50;47.50;;;;;;5053384;28;19927;-67
2023/01/13 03:30:31;;;;;;;;;;;19.50;47.50;;;;;;5054125;28;19970;-67
2023/01/13 03:32:59;;;;;;;;;;;19.50;47.50;;;;;;5052749;28;19952;-67
2023/01/13 03:35:29;;;;;;;;;;;19.50;47.50;;;;;;5053478;28;19920;-67
2023/01/13 03:37:57;;;;;;;;;;;19.50;47.50;;;;;;5054311;28;19994;-67
2023/01/13 03:40:25;;;;;;;;;;;19.50;47.50;;;;;;5049643;28;19971;-67
2023/01/13 03:45:34;;;;;;;;;;;19.50;47.50;;;;;;5069723;28;19982;-67
2023/01/13 03:48:01;;;;;;;;;;;19.50;47.50;;;;;;5071005;28;19972;-67
2023/01/13 03:50:30;;;;;;;;;;;19.50;47.50;;;;;;5052979;28;19973;-67
2023/01/13 03:52:57;;;;;;;;;;;19.50;47.50;;;;;;5052742;28;19936;-67
2023/01/13 03:55:25;;;;;;;;;;;19.50;47.50;;;;;;5061935;28;20023;-68
2023/01/13 03:57:54;;;;;;;;;;;19.50;47.50;;;;;;5053468;28;19921;-67
2023/01/13 04:00:21;;;;;;;;;;;19.50;47.50;;;;;;5061788;28;19970;-68
2023/01/13 04:02:49;;;;;;;;;;;19.50;47.40;;;;;;5069575;28;19925;-68
2023/01/13 04:05:16;;;;;;;;;;;19.50;47.40;;;;;;5053074;28;19948;-67
2023/01/13 04:07:47;;;;;;;;;;;19.50;47.50;;;;;;5040859;28;19932;-67
2023/01/13 04:10:14;;;;;;;;;;;19.50;47.50;;;;;;5061511;28;19936;-68
2023/01/13 04:13:01;;;;;;;;;;;19.50;47.40;;;;;;5051919;28;19928;-65
2023/01/13 04:15:28;;;;;;;;;;;19.50;47.40;;;;;;5054673;28;19920;-68
2023/01/13 04:17:55;;;;;;;;;;;19.50;47.40;;;;;;5052663;28;19927;-67
2023/01/13 04:20:22;;;;;;;;;;;19.50;47.40;;;;;;5053219;28;19920;-65
2023/01/13 04:22:50;;;;;;;;;;;19.50;47.40;;;;;;5070224;28;20427;-68
2023/01/13 04:25:16;;;;;;;;;;;19.50;47.40;;;;;;5052043;28;19975;-66
2023/01/13 04:27:43;;;;;;;;;;;19.50;47.40;;;;;;5052958;28;19932;-68
2023/01/13 04:30:11;;;;;;;;;;;19.50;47.50;;;;;;5057445;28;19927;-66
2023/01/13 04:32:37;;;;;;;;;;;19.50;47.40;;;;;;5069788;28;20015;-67
2023/01/13 04:35:04;;;;;;;;;;;19.50;47.40;;;;;;5057018;28;19932;-68
2023/01/13 04:37:31;;;;;;;;;;;19.50;47.40;;;;;;5053891;28;20017;-67
2023/01/13 04:39:59;;;;;;;;;;;19.50;47.40;;;;;;5070806;28;20381;-68
2023/01/13 04:42:26;;;;;;;;;;;19.50;47.40;;;;;;5051621;28;19924;-66
2023/01/13 04:44:53;;;;;;;;;;;19.50;47.40;;;;;;5054007;28;19928;-67
2023/01/13 04:47:20;;;;;;;;;;;19.50;47.40;;;;;;5055679;28;19920;-68
2023/01/13 04:49:46;;;;;;;;;;;19.50;47.40;;;;;;5052379;28;19924;-67
2023/01/13 04:52:13;;;;;;;;;;;19.50;47.40;;;;;;5053182;28;19924;-67
2023/01/13 04:54:40;;;;;;;;;;;19.50;47.40;;;;;;5050379;28;19973;-67
2023/01/13 04:57:08;;;;;;;;;;;19.50;47.40;;;;;;5051048;28;19921;-67
2023/01/13 04:59:35;;;;;;;;;;;19.50;47.40;;;;;;5052755;28;19990;-66
2023/01/13 05:02:02;;;;;;;;;;;19.50;47.40;;;;;;5052905;28;19967;-68
2023/01/13 05:04:29;;;;;;;;;;;19.50;47.30;;;;;;5069757;28;19928;-68
2023/01/13 05:06:57;;;;;;;;;;;19.50;48.00;;;;;;5051736;28;19932;-67
2023/01/13 05:09:24;;;;;;;;;;;19.50;47.30;;;;;;5070935;28;20017;-66
2023/01/13 05:17:31;;;;;;;;;;;19.50;47.30;;;;;;5032598;28;20354;-67
2023/01/13 05:19:58;;;;;;;;;;;19.50;47.30;;;;;;5069350;28;19970;-67
2023/01/13 05:25:24;;;;;;;;;;;19.50;47.30;;;;;;5018384;28;19932;-67
2023/01/13 05:27:51;;;;;;;;;;;19.50;47.30;;;;;;5051692;28;20099;-68
2023/01/13 05:30:20;;;;;;;;;;;19.50;47.20;;;;;;5054002;28;19920;-65
2023/01/13 05:32:46;;;;;;;;;;;19.50;47.30;;;;;;5055807;28;19946;-67
2023/01/13 05:35:14;;;;;;;;;;;19.50;47.20;;;;;;5074350;28;19925;-68
2023/01/13 05:37:41;;;;;;;;;;;19.50;47.30;;;;;;5040588;28;19956;-67
2023/01/13 05:45:58;;;;;;;;;;;19.50;47.20;;;;;;5003290;28;20077;-68
2023/01/13 05:48:25;;;;;;;;;;;19.50;47.20;;;;;;5042626;28;19982;-68
2023/01/13 05:50:52;;;;;;;;;;;19.50;47.20;;;;;;5064177;28;19966;-65
2023/01/13 05:53:19;;;;;;;;;;;19.50;47.20;;;;;;5073418;28;19926;-67
2023/01/13 05:55:46;;;;;;;;;;;19.50;47.20;;;;;;5060221;28;19968;-67
2023/01/13 05:58:13;;;;;;;;;;;19.50;47.20;;;;;;5055843;28;19925;-68
2023/01/13 06:00:40;;;;;;;;;;;19.50;47.20;;;;;;5071972;28;19924;-68
2023/01/13 06:03:08;;;;;;;;;;;19.50;47.10;;;;;;5049896;28;19944;-68
2023/01/13 06:05:35;;;;;;;;;;;19.50;47.20;;;;;;5042785;28;19952;-67
2023/01/13 06:08:02;;;;;;;;;;;19.50;47.20;;;;;;5055504;28;19920;-67
2023/01/13 06:10:28;;;;;;;;;;;19.50;47.20;;;;;;5055788;28;20340;-66
2023/01/13 06:12:55;;;;;;;;;;;19.60;47.30;;;;;;5072411;28;19936;-67
2023/01/13 06:15:22;;;;;;;;;;;19.50;47.20;;;;;;5055822;28;19920;-67
2023/01/13 06:17:49;;;;;;;;;;;19.50;47.20;;;;;;5054904;28;19920;-67
2023/01/13 06:20:18;;;;;;;;;;;19.50;47.20;;;;;;5055175;28;19928;-68
2023/01/13 06:22:48;;;;;;;;;;;19.50;47.20;;;;;;5047666;28;19959;-67
2023/01/13 06:25:17;;;;;;;;;;;19.50;47.10;;;;;;5073425;28;19939;-68
2023/01/13 06:27:44;;;;;;;;;;;19.50;47.10;;;;;;5045852;28;20252;-67
2023/01/13 06:30:11;;;;;;;;;;;19.50;47.10;;;;;;5055548;28;19921;-66
2023/01/13 06:32:39;;;;;;;;;;;19.50;47.10;;;;;;5072556;28;20328;-67
2023/01/13 06:35:07;;;;;;;;;;;19.50;47.10;;;;;;5072807;28;19931;-67
2023/01/13 06:37:35;;;;;;;;;;;19.50;47.10;;;;;;5053893;28;19932;-68
2023/01/13 06:40:02;;;;;;;;;;;19.50;47.10;;;;;;5052698;28;19946;-67
2023/01/13 06:45:13;;;;;;;;;;;19.50;47.10;;;;;;5054537;28;19924;-68
2023/01/13 06:47:40;;;;;;;;;;;19.50;47.10;;;;;;5072035;28;19921;-67
2023/01/13 06:50:07;;;;;;;;;;;19.50;47.10;;;;;;5072689;28;19958;-68
2023/01/13 06:52:35;;;;;;;;;;;19.50;47.10;;;;;;5071975;28;19921;-67
2023/01/13 06:55:02;;;;;;;;;;;19.50;47.10;;;;;;5072127;28;19924;-67
2023/01/13 06:57:28;;;;;;;;;;;19.50;47.10;;;;;;5054042;28;19920;-67
2023/01/13 06:59:55;;;;;;;;;;;19.50;47.10;;;;;;5073090;28;19970;-67
2023/01/13 07:02:22;;;;;;;;;;;19.50;47.10;;;;;;5054347;28;20247;-68
2023/01/13 07:04:49;;;;;;;;;;;19.50;47.10;;;;;;5054970;28;20031;-67
2023/01/13 07:07:16;;;;;;;;;;;19.50;47.10;;;;;;5054101;28;19969;-68
2023/01/13 07:09:44;;;;;;;;;;;19.50;47.10;;;;;;5072531;28;19931;-67
2023/01/13 07:12:11;;;;;;;;;;;19.50;47.10;;;;;;5052858;28;19974;-67
2023/01/13 07:17:24;;;;;;;;;;;19.50;47.10;;;;;;5057873;28;19966;-66
2023/01/13 07:19:50;;;;;;;;;;;19.50;47.10;;;;;;5054408;28;19921;-67
2023/01/13 07:22:17;;;;;;;;;;;19.50;47.10;;;;;;5052772;28;19921;-68
2023/01/13 07:24:45;;;;;;;;;;;19.50;47.10;;;;;;5053727;28;19974;-67
2023/01/13 07:27:12;;;;;;;;;;;19.50;47.10;;;;;;5066126;28;19927;-66
2023/01/13 07:29:39;;;;;;;;;;;19.50;47.10;;;;;;5068744;28;20368;-67
2023/01/13 07:32:06;;;;;;;;;;;19.50;47.00;;;;;;5078319;28;19954;-68
2023/01/13 07:34:33;;;;;;;;;;;19.50;47.10;;;;;;5061541;28;20014;-67
2023/01/13 07:37:00;;;;;;;;;;;19.50;47.00;;;;;;5063758;28;19932;-68
2023/01/13 07:39:26;;;;;;;;;;;19.50;47.00;;;;;;5081585;28;19927;-67
2023/01/13 07:44:39;;;;;;;;;;;19.50;47.00;;;;;;5055500;28;19924;-68
2023/01/13 07:47:07;;;;;;;;;;;19.50;47.00;;;;;;5064002;28;19925;-68
2023/01/13 07:49:34;;;;;;;;;;;19.50;47.00;;;;;;5063215;28;20255;-67
2023/01/13 07:52:00;;;;;;;;;;;19.50;47.00;;;;;;5079015;28;19920;-69
2023/01/13 07:54:27;;;;;;;;;;;19.50;47.00;;;;;;5062870;28;19993;-67
2023/01/13 07:56:56;;;;;;;;;;;19.50;47.00;;;;;;5061145;28;19927;-66
2023/01/13 07:59:23;;;;;;;;;;;19.50;47.00;;;;;;5060267;28;20313;-68
2023/01/13 08:01:52;;;;;;;;;;;19.50;47.00;;;;;;5054849;28;19970;-70
2023/01/13 08:04:18;;;;;;;;;;;19.50;47.00;;;;;;5060170;28;19925;-69
2023/01/13 08:06:45;;;;;;;;;;;19.50;47.00;;;;;;5061131;28;19920;-68
2023/01/13 08:09:12;;;;;;;;;;;19.50;47.00;;;;;;5060914;28;19939;-68
2023/01/13 08:11:39;;;;;;;;;;;19.50;47.00;;;;;;5045720;28;19967;-71
2023/01/13 08:14:07;;;;;;;;;;;19.50;47.00;;;;;;5055372;28;19982;-68
2023/01/13 08:16:34;;;;;;;;;;;19.50;47.00;;;;;;5074733;28;20370;-69
2023/01/13 08:19:00;;;;;;;;;;;19.50;47.00;;;;;;5072355;28;19970;-69
2023/01/13 08:21:27;;;;;;;;;;;19.50;47.00;;;;;;5057141;28;20358;-69
2023/01/13 08:23:54;;;;;;;;;;;19.60;47.00;;;;;;5054845;28;19920;-67
2023/01/13 08:26:21;;;;;;;;;;;19.60;47.00;;;;;;5073125;28;19924;-69
2023/01/13 08:28:48;;;;;;;;;;;19.60;47.00;;;;;;5073745;28;19978;-68
2023/01/13 08:31:18;;;;;;;;;;;19.60;47.00;;;;;;5079572;28;19924;-69
2023/01/13 08:33:45;;;;;;;;;;;19.60;47.10;;;;;;5076019;28;19920;-69
2023/01/13 08:36:12;;;;;;;;;;;19.60;47.00;;;;;;5083535;28;19920;-68
2023/01/13 08:38:39;;;;;;;;;;;19.60;47.00;;;;;;5076509;28;20003;-69
2023/01/13 08:41:09;;;;;;;;;;;19.60;47.00;;;;;;5066949;28;19935;-69
2023/01/13 08:43:36;;;;;;;;;;;19.60;47.00;;;;;;5074647;28;19959;-70
2023/01/13 08:46:04;;;;;;;;;;;19.60;47.00;;;;;;5057137;28;20408;-70
2023/01/13 08:48:32;;;;;;;;;;;19.60;47.00;;;;;;5057253;28;19978;-68
2023/01/13 08:51:02;;;;;;;;;;;19.60;47.00;;;;;;5065767;28;19974;-67
2023/01/13 08:53:29;;;;;;;;;;;19.60;47.00;;;;;;5060168;28;19927;-67
2023/01/13 08:55:55;;;;;;;;;;;19.70;47.00;;;;;;5072427;28;19924;-67
2023/01/13 08:58:22;;;;;;;;;;;19.60;47.00;;;;;;5086966;28;20379;-67
2023/01/13 09:00:49;;;;;;;;;;;19.70;47.10;;;;;;5074262;28;19920;-67
2023/01/13 09:03:16;;;;;;;;;;;19.70;47.00;;;;;;5055676;28;19924;-67
2023/01/13 09:05:44;;;;;;;;;;;19.70;47.00;;;;;;5076955;28;19920;-68
2023/01/13 09:08:11;;;;;;;;;;;19.70;47.00;;;;;;5059912;28;19927;-68
2023/01/13 09:10:39;;;;;;;;;;;19.70;47.00;;;;;;5059536;28;20025;-72
2023/01/13 09:13:11;;;;;;;;;;;19.70;47.00;;;;;;5064487;28;19943;-68
2023/01/13 09:15:38;;;;;;;;;;;19.70;47.00;;;;;;5069100;28;19931;-67
2023/01/13 09:18:05;;;;;;;;;;;19.70;47.00;;;;;;5078807;28;19920;-68
2023/01/13 09:20:32;;;;;;;;;;;19.70;47.00;;;;;;5058257;28;19927;-68
2023/01/13 09:23:00;;;;;;;;;;;19.70;47.00;;;;;;5060540;28;19966;-69
2023/01/13 09:25:27;;;;;;;;;;;19.70;47.00;;;;;;5075672;28;20011;-67
2023/01/13 09:27:54;;;;;;;;;;;19.70;47.00;;;;;;5059422;28;19978;-70
2023/01/13 09:30:20;;;;;;;;;;;19.70;47.00;;;;;;5057212;28;19927;-66
2023/01/13 09:32:47;;;;;;;;;;;19.70;47.60;;;;;;5057427;28;20411;-67
2023/01/13 09:35:13;;;;;;;;;;;19.70;47.00;;;;;;5056796;28;19924;-69
2023/01/13 09:37:40;;;;;;;;;;;19.70;47.00;;;;;;5053835;28;19921;-71
2023/01/13 09:40:10;;;;;;;;;;;19.70;47.00;;;;;;5062951;28;19920;-69
2023/01/13 09:45:27;;;;;;;;;;;19.70;47.00;;;;;;5074170;28;19920;-67
2023/01/13 09:47:56;;;;;;;;;;;19.70;46.90;;;;;;5077799;28;19919;-69
2023/01/13 09:50:25;;;;;;;;;;;19.70;46.90;;;;;;5079975;28;20414;-68
2023/01/13 09:52:52;;;;;;;;;;;19.70;46.90;;;;;;5076832;28;20019;-68
2023/01/13 09:55:22;;;;;;;;;;;19.80;47.00;;;;;;5095279;28;19923;-68
2023/01/13 09:57:49;;;;;;;;;;;19.80;47.00;;;;;;5077320;28;19924;-67
2023/01/13 10:00:17;;;;;;;;;;;19.80;47.00;;;;;;5058941;28;19999;-65
2023/01/13 10:02:49;;;;;;;;;;;19.80;47.00;;;;;;5070421;28;19924;-68
2023/01/13 10:05:16;;;;;;;;;;;19.80;47.00;;;;;;5077720;28;19928;-69
2023/01/13 10:07:46;;;;;;;;;;;19.80;47.00;;;;;;5097042;28;19927;-69
2023/01/13 10:10:14;;;;;;;;;;;19.80;47.00;;;;;;5060854;28;19925;-69
2023/01/13 10:15:26;;;;;;;;;;;19.80;47.00;;;;;;5058729;28;19920;-67
2023/01/13 10:17:55;;;;;;;;;;;19.80;47.00;;;;;;5078875;28;19927;-67
2023/01/13 10:20:23;;;;;;;;;;;19.80;46.90;;;;;;5074494;28;19920;-68
2023/01/13 10:22:52;;;;;;;;;;;19.80;46.90;;;;;;5057953;28;19924;-69
2023/01/13 10:25:21;;;;;;;;;;;19.80;47.00;;;;;;5054855;28;19928;-69
2023/01/13 10:27:49;;;;;;;;;;;19.80;46.90;;;;;;5059374;28;19921;-70
2023/01/13 10:30:20;;;;;;;;;;;19.80;46.90;;;;;;5059493;28;20333;-68
2023/01/13 10:32:47;;;;;;;;;;;19.80;47.00;;;;;;5057146;28;20425;-68
2023/01/13 10:35:14;;;;;;;;;;;19.90;47.00;;;;;;5039081;28;20306;-68
2023/01/13 10:37:41;;;;;;;;;;;19.80;46.90;;;;;;5056811;28;19921;-67
2023/01/13 10:40:12;;;;;;;;;;;19.80;46.90;;;;;;5057751;28;19928;-67
2023/01/13 10:42:39;;;;;;;;;;;19.80;47.50;;;;;;5063065;28;20341;-67
2023/01/13 10:45:11;;;;;;;;;;;19.90;47.00;;;;;;5085418;28;19924;-69
2023/01/13 10:47:39;;;;;;;;;;;19.90;46.90;;;;;;5062888;28;20399;-67
2023/01/13 10:50:21;;;;;;;;;;;19.90;47.00;;;;;;5061203;28;19920;-68
2023/01/13 10:52:58;;;;;;;;;;;19.90;47.00;;;;;;5095797;28;19920;-68
2023/01/13 10:55:25;;;;;;;;;;;19.90;46.90;;;;;;5066686;28;19920;-68
2023/01/13 10:57:52;;;;;;;;;;;19.90;46.90;;;;;;5058643;28;19921;-66
2023/01/13 11:00:30;;;;;;;;;;;19.90;47.00;;;;;;5073723;28;19920;-67
2023/01/13 11:03:13;;;;;;;;;;;19.90;46.90;;;;;;5057435;28;19920;-67
2023/01/13 11:05:39;;;;;;;;;;;19.90;46.90;;;;;;5060851;28;20015;-68
2023/01/13 11:08:13;;;;;;;;;;;19.90;46.90;;;;;;5064889;28;20312;-71
2023/01/13 11:10:44;;;;;;;;;;;19.90;46.90;;;;;;5057825;28;20300;-69
2023/01/13 11:13:11;;;;;;;;;;;19.90;46.90;;;;;;5067897;28;19924;-70
2023/01/13 11:15:41;;;;;;;;;;;19.90;46.90;;;;;;5059008;28;19925;-68
2023/01/13 11:18:09;;;;;;;;;;;19.90;46.90;;;;;;5078288;28;19999;-72
2023/01/13 11:20:36;;;;;;;;;;;19.90;46.90;;;;;;5092018;28;19924;-68
2023/01/13 11:23:04;;;;;;;;;;;19.90;46.90;;;;;;5057841;28;19920;-67
2023/01/13 11:25:32;;;;;;;;;;;19.90;46.90;;;;;;5057935;28;19924;-68
2023/01/13 11:27:59;;;;;;;;;;;19.90;46.90;;;;;;5068810;28;19927;-67
2023/01/13 11:30:29;;;;;;;;;;;19.90;46.90;;;;;;5047215;28;19928;-67
2023/01/13 11:33:02;;;;;;;;;;;19.90;46.80;;;;;;5062419;28;19926;-67
2023/01/13 11:35:29;;;;;;;;;;;19.90;46.80;;;;;;5061466;28;19927;-67
2023/01/13 11:37:57;;;;;;;;;;;19.90;46.80;;;;;;5057146;28;19921;-68
2023/01/13 11:40:26;;;;;;;;;;;19.90;46.80;;;;;;5055249;28;19920;-70
2023/01/13 11:42:53;;;;;;;;;;;19.90;46.80;;;;;;5057885;28;19920;-67
2023/01/13 11:45:20;;;;;;;;;;;19.90;46.80;;;;;;5057204;28;19977;-71
2023/01/13 11:47:47;;;;;;;;;;;19.90;46.80;;;;;;5057050;28;19921;-70
2023/01/13 11:50:21;;;;;;;;;;;19.90;46.80;;;;;;5059631;28;19920;-70
2023/01/13 11:52:56;;;;;;;;;;;19.90;46.80;;;;;;5057705;28;19935;-67
2023/01/13 11:55:28;;;;;;;;;;;19.90;46.80;;;;;;5062953;28;19920;-67
2023/01/13 11:57:57;;;;;;;;;;;19.90;46.80;;;;;;5073486;28;20419;-69
2023/01/13 12:00:30;;;;;;;;;;;19.90;46.80;;;;;;5074847;28;19920;-68
2023/01/13 12:02:59;;;;;;;;;;;19.90;46.80;;;;;;5056871;28;19950;-68
2023/01/13 12:05:29;;;;;;;;;;;19.90;46.80;;;;;;5072965;28;19921;-68
2023/01/13 12:07:59;;;;;;;;;;;19.90;46.80;;;;;;5073091;28;20278;-72
2023/01/13 12:10:32;;;;;;;;;;;19.90;46.70;;;;;;5074828;28;19920;-68
2023/01/13 12:13:00;;;;;;;;;;;19.90;46.80;;;;;;5073085;28;20054;-69
2023/01/13 12:15:30;;;;;;;;;;;19.90;46.70;;;;;;5063274;28;19924;-68
2023/01/13 12:18:05;;;;;;;;;;;19.90;46.70;;;;;;5069732;28;19920;-69
2023/01/13 12:20:34;;;;;;;;;;;19.90;46.70;;;;;;5063039;28;19924;-68
2023/01/13 12:23:03;;;;;;;;;;;19.90;46.70;;;;;;5092484;28;19924;-69
2023/01/13 12:25:30;;;;;;;;;;;20.00;46.80;;;;;;5076396;28;19965;-67
2023/01/13 12:27:59;;;;;;;;;;;19.90;46.70;;;;;;5094431;28;19920;-67
2023/01/13 12:30:26;;;;;;;;;;;20.00;46.80;;;;;;5076962;28;19920;-67
2023/01/13 12:32:52;;;;;;;;;;;20.00;46.80;;;;;;5079565;28;19974;-67
2023/01/13 12:35:22;;;;;;;;;;;20.00;46.80;;;;;;5056231;28;20347;-67
2023/01/13 12:37:52;;;;;;;;;;;19.90;46.70;;;;;;5050390;28;19924;-67
2023/01/13 12:40:21;;;;;;;;;;;19.90;46.60;;;;;;5052799;28;20309;-67
2023/01/13 12:45:34;;;;;;;;;;;20.00;46.70;;;;;;5055331;28;19924;-67
2023/01/13 12:48:01;;;;;;;;;;;19.90;46.60;;;;;;5039528;28;19921;-67
2023/01/13 12:50:39;;;;;;;;;;;19.90;46.60;;;;;;5056863;28;19932;-68
2023/01/13 12:53:25;;;;;;;;;;;19.90;46.60;;;;;;5056230;28;20015;-70
2023/01/13 12:55:53;;;;;;;;;;;20.00;46.70;;;;;;5055112;28;19925;-69
2023/01/13 12:58:24;;;;;;;;;;;19.90;46.60;;;;;;5060438;28;19944;-67
2023/01/13 13:00:56;;;;;;;;;;;19.90;46.60;;;;;;5058795;28;19931;-68
2023/01/13 13:03:27;;;;;;;;;;;19.90;46.60;;;;;;5056697;28;19924;-67
2023/01/13 13:05:55;;;;;;;;;;;20.00;46.70;;;;;;5052064;28;19927;-68
2023/01/13 13:08:26;;;;;;;;;;;20.00;46.70;;;;;;5056382;28;20309;-67
2023/01/13 13:11:00;;;;;;;;;;;20.00;46.70;;;;;;5056459;28;19920;-66
2023/01/13 13:13:39;;;;;;;;;;;19.90;46.60;;;;;;5054500;28;19920;-66
2023/01/13 13:16:29;;;;;;;;;;;20.00;46.70;;;;;;5055634;28;19990;-66
2023/01/13 13:18:56;;;;;;;;;;;20.00;46.70;;;;;;5040741;28;20297;-67
2023/01/13 13:21:23;;;;;;;;;;;20.00;46.70;;;;;;5060025;28;19924;-66
2023/01/13 13:24:01;;;;;;;;;;;20.00;46.70;;;;;;5060740;28;19928;-67
2023/01/13 13:26:46;;;;;;;;;;;20.00;46.70;;;;;;5060794;28;19921;-65
2023/01/13 13:29:31;;;;;;;;;;;20.00;46.70;;;;;;5053826;28;19921;-67
2023/01/13 13:32:13;;;;;;;;;;;20.00;46.70;;;;;;5066462;28;19966;-68
2023/01/13 13:34:43;;;;;;;;;;;20.00;46.80;;;;;;5090118;28;19973;-68
2023/01/13 13:37:24;;;;;;;;;;;20.00;46.70;;;;;;5067485;28;19920;-69
2023/01/13 13:48:21;;;;;;;;;;;20.00;46.80;;;;;;5065750;28;19927;-67
2023/01/13 13:50:53;;;;;;;;;;;20.00;46.80;;;;;;5062043;28;19920;-65
2023/01/13 13:53:20;;;;;;;;;;;20.00;46.80;;;;;;5058061;28;19928;-67
2023/01/13 13:55:53;;;;;;;;;;;20.00;46.80;;;;;;5074587;28;19920;-67
2023/01/13 13:58:20;;;;;;;;;;;20.00;46.80;;;;;;5059066;28;19924;-67
2023/01/13 14:00:47;;;;;;;;;;;20.00;46.90;;;;;;5057701;28;19936;-67
2023/01/13 14:03:19;;;;;;;;;;;20.00;46.90;;;;;;5059636;28;19920;-66
2023/01/13 14:05:53;;;;;;;;;;;20.00;46.90;;;;;;5058662;28;19920;-67
2023/01/13 14:08:20;;;;;;;;;;;20.10;46.90;;;;;;5070022;28;19920;-67
2023/01/13 14:10:47;;;;;;;;;;;20.00;46.90;;;;;;5048243;28;19963;-68
2023/01/13 14:13:14;;;;;;;;;;;20.10;47.00;;;;;;5087765;28;19924;-68
2023/01/13 14:15:41;;;;;;;;;;;20.10;46.90;;;;;;5059256;28;19992;-66
2023/01/13 14:18:10;;;;;;;;;;;20.10;46.90;;;;;;5074278;28;19927;-64
2023/01/13 14:20:37;;;;;;;;;;;20.10;46.90;;;;;;5077019;28;19966;-65
2023/01/13 14:23:05;;;;;;;;;;;20.10;46.90;;;;;;5076823;28;19921;-62
2023/01/13 14:25:33;;;;;;;;;;;20.10;46.90;;;;;;5056807;28;19920;-67
2023/01/13 14:28:00;;;;;;;;;;;20.10;46.80;;;;;;5076390;28;19925;-66
2023/01/13 14:30:27;;;;;;;;;;;20.10;46.70;;;;;;5055758;28;19923;-64
2023/01/13 14:32:54;;;;;;;;;;;20.10;46.60;;;;;;5070466;28;19920;-63
2023/01/13 14:35:21;;;;;;;;;;;20.10;46.50;;;;;;5063704;28;19966;-64
2023/01/13 14:37:49;;;;;;;;;;;20.00;46.40;;;;;;5065865;28;19920;-65
2023/01/13 14:40:35;;;;;;;;;;;20.00;46.30;;;;;;5070031;28;19924;-65
2023/01/13 14:43:03;;;;;;;;;;;20.10;46.30;;;;;;5058255;28;19921;-65
2023/01/13 14:45:32;;;;;;;;;;;20.10;46.10;;;;;;5064696;28;19920;-64
2023/01/13 14:47:58;;;;;;;;;;;20.00;45.90;;;;;;5078306;28;19920;-65
2023/01/13 14:50:30;;;;;;;;;;;20.00;45.80;;;;;;5078382;28;19966;-66
2023/01/13 14:52:57;;;;;;;;;;;20.00;45.80;;;;;;5066255;28;19924;-65
2023/01/13 14:55:25;;;;;;;;;;;20.00;45.80;;;;;;5061498;28;19975;-67
2023/01/13 14:57:51;;;;;;;;;;;20.00;45.80;;;;;;5062654;28;20431;-67
2023/01/13 15:00:21;;;;;;;;;;;20.00;45.60;;;;;;5063198;28;19963;-66
2023/01/13 15:02:48;;;;;;;;;;;20.00;45.60;;;;;;5073850;28;19932;-66
2023/01/13 15:05:48;;;;;;;;;;;19.90;45.50;;;;;;5057898;28;19925;-64
2023/01/13 15:08:28;;;;;;;;;;;19.90;45.50;;;;;;5057833;28;19959;-66
2023/01/13 15:10:58;;;;;;;;;;;19.90;45.40;;;;;;5058736;28;19966;-66
2023/01/13 15:13:26;;;;;;;;;;;19.90;45.30;;;;;;5055222;28;19943;-66
2023/01/13 15:15:55;;;;;;;;;;;19.90;45.30;;;;;;5068949;28;20240;-66
2023/01/13 15:18:22;;;;;;;;;;;19.90;45.30;;;;;;5073824;28;19924;-66